Time;durP1;ratioP1;P1;durP2;ratioP2;P2;SDS_P1;SDS_P2;PMS_P1;PMS_P2;Temp;Humidity;BMP_temperature;BMP_pressure;BME280_temperature;BME280_humidity;BME280_pressure;Samples;Min_cycle;Max_cycle;Signal;HPM_P1;HPM_P2
2023/07/29 00:02:00;;;;;;;4.83;3.53;;;;;;;;;;5004968;28;20561;-72
2023/07/29 00:05:04;;;;;;;4.43;3.93;;;;;;;;;;5016972;28;20177;-73
2023/07/29 00:08:09;;;;;;;4.53;3.40;;;;;;;;;;5016687;28;20178;-73
2023/07/29 00:11:12;;;;;;;5.47;3.77;;;;;;;;;;5017230;28;20209;-72
2023/07/29 00:14:16;;;;;;;6.93;4.27;;;;;;;;;;5017299;28;20177;-73
2023/07/29 00:17:21;;;;;;;6.83;4.10;;;;;;;;;;5016586;28;20521;-73
2023/07/29 00:20:25;;;;;;;8.70;4.03;;;;;;;;;;4993417;28;20185;-73
2023/07/29 00:23:29;;;;;;;3.87;3.40;;;;;;;;;;5016535;28;20185;-73
2023/07/29 00:26:34;;;;;;;5.27;3.77;;;;;;;;;;5016261;28;20177;-73
2023/07/29 00:29:38;;;;;;;5.87;3.90;;;;;;;;;;4993219;28;20205;-73
2023/07/29 00:32:43;;;;;;;4.67;3.40;;;;;;;;;;5015986;28;20213;-73
2023/07/29 00:35:46;;;;;;;3.33;3.03;;;;;;;;;;5003776;28;20197;-73
2023/07/29 00:38:52;;;;;;;5.33;4.10;;;;;;;;;;5004007;28;20178;-73
2023/07/29 00:41:57;;;;;;;6.13;3.50;;;;;;;;;;5003855;28;20221;-73
2023/07/29 00:45:01;;;;;;;4.40;3.17;;;;;;;;;;5004124;28;20181;-73
2023/07/29 00:48:05;;;;;;;3.67;3.13;;;;;;;;;;5004151;28;20189;-73
2023/07/29 00:51:11;;;;;;;4.97;3.20;;;;;;;;;;5003603;28;20213;-72
2023/07/29 00:54:15;;;;;;;3.93;3.20;;;;;;;;;;4991944;28;20185;-72
2023/07/29 00:57:19;;;;;;;5.77;3.33;;;;;;;;;;4992584;28;20177;-72
2023/07/29 01:00:24;;;;;;;4.43;2.77;;;;;;;;;;5004395;28;20174;-72
2023/07/29 01:03:28;;;;;;;4.83;3.20;;;;;;;;;;5003704;28;20182;-72
2023/07/29 01:06:47;;;;;;;3.93;2.60;;;;;;;;;;5003512;28;20205;-72
2023/07/29 01:10:11;;;;;;;6.67;2.83;;;;;;;;;;5003568;28;20209;-73
2023/07/29 01:13:25;;;;;;;4.80;3.20;;;;;;;;;;4992419;28;20178;-73
2023/07/29 01:16:34;;;;;;;5.37;2.90;;;;;;;;;;5003278;28;20201;-73
2023/07/29 01:19:53;;;;;;;7.83;3.00;;;;;;;;;;5003240;28;20193;-73
2023/07/29 01:22:57;;;;;;;4.63;2.80;;;;;;;;;;4992410;28;20181;-73
2023/07/29 01:26:03;;;;;;;3.07;2.77;;;;;;;;;;5003498;28;20567;-73
2023/07/29 01:29:07;;;;;;;5.30;3.20;;;;;;;;;;5003262;28;20201;-73
2023/07/29 01:32:17;;;;;;;5.30;2.53;;;;;;;;;;5002868;28;20216;-73
2023/07/29 01:35:31;;;;;;;3.37;2.40;;;;;;;;;;5015525;28;20178;-73
2023/07/29 01:38:38;;;;;;;5.03;3.20;;;;;;;;;;5002784;28;20661;-73
2023/07/29 01:41:43;;;;;;;9.93;3.20;;;;;;;;;;5003061;28;20549;-73
2023/07/29 01:44:48;;;;;;;5.77;2.73;;;;;;;;;;5002805;28;20182;-73
2023/07/29 01:47:52;;;;;;;4.20;3.00;;;;;;;;;;5002971;28;20185;-73
2023/07/29 01:50:56;;;;;;;5.80;2.50;;;;;;;;;;5014817;28;20585;-73
2023/07/29 01:54:01;;;;;;;7.30;3.00;;;;;;;;;;4991792;28;20178;-73
2023/07/29 01:57:05;;;;;;;7.50;2.70;;;;;;;;;;5014847;28;20625;-73
2023/07/29 02:00:09;;;;;;;2.87;2.20;;;;;;;;;;5003001;28;20178;-73
2023/07/29 02:03:19;;;;;;;7.80;2.60;;;;;;;;;;5014982;28;20181;-73
2023/07/29 02:06:24;;;;;;;4.60;2.80;;;;;;;;;;5002521;28;20186;-73
2023/07/29 02:09:30;;;;;;;5.07;2.67;;;;;;;;;;4991385;28;20214;-73
2023/07/29 02:12:34;;;;;;;5.83;2.80;;;;;;;;;;4991830;28;20217;-73
2023/07/29 02:15:39;;;;;;;6.90;3.50;;;;;;;;;;5014335;28;20193;-73
2023/07/29 02:18:43;;;;;;;4.00;3.27;;;;;;;;;;5002144;28;20194;-73
2023/07/29 02:21:48;;;;;;;5.73;3.53;;;;;;;;;;5002106;28;20209;-72
2023/07/29 02:24:52;;;;;;;6.13;3.30;;;;;;;;;;5002604;28;20625;-72
2023/07/29 02:27:56;;;;;;;5.33;3.30;;;;;;;;;;4991397;28;20632;-73
2023/07/29 02:31:14;;;;;;;4.40;3.50;;;;;;;;;;5002306;28;20229;-72
2023/07/29 02:34:18;;;;;;;5.47;3.30;;;;;;;;;;5014190;28;20185;-73
2023/07/29 02:37:22;;;;;;;4.90;3.07;;;;;;;;;;5001961;28;20205;-73
2023/07/29 02:40:28;;;;;;;4.13;3.20;;;;;;;;;;5001693;28;20177;-73
2023/07/29 02:43:32;;;;;;;4.53;3.13;;;;;;;;;;5001930;28;20177;-73
2023/07/29 02:46:35;;;;;;;8.33;3.20;;;;;;;;;;5002092;28;20185;-73
2023/07/29 02:49:40;;;;;;;3.20;2.67;;;;;;;;;;5001592;28;20205;-73
2023/07/29 02:52:43;;;;;;;4.47;3.00;;;;;;;;;;5001462;28;20220;-73
2023/07/29 02:55:48;;;;;;;4.70;2.73;;;;;;;;;;5001544;28;20655;-73
2023/07/29 02:58:51;;;;;;;4.57;3.13;;;;;;;;;;5002004;28;20197;-73
2023/07/29 03:01:56;;;;;;;3.83;2.90;;;;;;;;;;5013487;28;20212;-73
2023/07/29 03:05:00;;;;;;;3.90;2.53;;;;;;;;;;5013749;28;20181;-73
2023/07/29 03:08:04;;;;;;;4.90;3.57;;;;;;;;;;5001817;28;20177;-72
2023/07/29 03:11:10;;;;;;;4.40;3.17;;;;;;;;;;5001723;28;20229;-73
2023/07/29 03:14:14;;;;;;;3.83;2.70;;;;;;;;;;5001821;28;20625;-73
2023/07/29 03:17:19;;;;;;;3.77;3.10;;;;;;;;;;5013303;28;20186;-73
2023/07/29 03:20:23;;;;;;;4.60;3.33;;;;;;;;;;4990311;28;20177;-73
2023/07/29 03:23:28;;;;;;;4.77;3.23;;;;;;;;;;5001261;28;20185;-73
2023/07/29 03:26:32;;;;;;;3.90;3.10;;;;;;;;;;5001741;28;20220;-73
2023/07/29 03:29:37;;;;;;;4.63;3.40;;;;;;;;;;5001338;28;20182;-73
2023/07/29 03:32:44;;;;;;;4.27;3.43;;;;;;;;;;5001526;28;20217;-73
2023/07/29 03:35:50;;;;;;;3.47;2.90;;;;;;;;;;4989932;28;20276;-73
2023/07/29 03:38:54;;;;;;;5.87;3.33;;;;;;;;;;4990226;28;20181;-73
2023/07/29 03:41:58;;;;;;;6.23;2.90;;;;;;;;;;4990388;28;20691;-73
2023/07/29 03:45:02;;;;;;;5.03;3.20;;;;;;;;;;5001292;28;20525;-72
2023/07/29 03:48:07;;;;;;;4.67;3.33;;;;;;;;;;5001288;28;20190;-73
2023/07/29 03:51:11;;;;;;;5.20;3.30;;;;;;;;;;5001313;28;20229;-73
2023/07/29 03:54:15;;;;;;;7.57;4.10;;;;;;;;;;5001544;28;20542;-72
2023/07/29 03:57:20;;;;;;;6.87;3.60;;;;;;;;;;5013226;28;20189;-73
2023/07/29 04:00:24;;;;;;;6.30;3.53;;;;;;;;;;5000853;28;20185;-73
2023/07/29 04:03:28;;;;;;;4.90;3.10;;;;;;;;;;5000770;28;20667;-73
2023/07/29 04:06:33;;;;;;;3.97;3.13;;;;;;;;;;5001346;28;20197;-73
2023/07/29 04:09:37;;;;;;;7.00;3.60;;;;;;;;;;4990079;28;20533;-73
2023/07/29 04:12:43;;;;;;;8.10;3.30;;;;;;;;;;5001001;28;20213;-73
2023/07/29 04:15:47;;;;;;;10.60;3.73;;;;;;;;;;5000898;28;20186;-73
2023/07/29 04:18:51;;;;;;;7.37;3.47;;;;;;;;;;5000718;28;20221;-73
2023/07/29 04:21:55;;;;;;;5.03;3.23;;;;;;;;;;4989729;28;20584;-73
2023/07/29 04:24:59;;;;;;;3.50;3.20;;;;;;;;;;5000882;28;20201;-73
2023/07/29 04:28:05;;;;;;;11.57;3.33;;;;;;;;;;5001199;28;20189;-73
2023/07/29 04:31:09;;;;;;;5.33;3.27;;;;;;;;;;5003039;28;20727;-73
2023/07/29 04:34:13;;;;;;;4.43;3.47;;;;;;;;;;5004564;28;20173;-72
2023/07/29 04:37:17;;;;;;;6.13;3.50;;;;;;;;;;5003864;28;20201;-72
2023/07/29 04:40:22;;;;;;;4.17;3.23;;;;;;;;;;5004058;28;20177;-72
2023/07/29 04:43:28;;;;;;;5.43;3.27;;;;;;;;;;4992833;28;20205;-72
2023/07/29 04:46:33;;;;;;;6.30;3.33;;;;;;;;;;5015756;28;20534;-72
2023/07/29 04:49:37;;;;;;;4.13;3.17;;;;;;;;;;5003746;28;20182;-72
2023/07/29 04:52:41;;;;;;;5.33;3.20;;;;;;;;;;5015577;28;20217;-71
2023/07/29 04:55:46;;;;;;;6.47;3.03;;;;;;;;;;5004037;28;20517;-72
2023/07/29 04:58:50;;;;;;;4.13;3.20;;;;;;;;;;5003992;28;20182;-72
2023/07/29 05:01:55;;;;;;;5.63;3.60;;;;;;;;;;5003667;28;20209;-72
2023/07/29 05:04:58;;;;;;;6.60;3.70;;;;;;;;;;5003631;28;20177;-72
2023/07/29 05:08:03;;;;;;;3.67;2.87;;;;;;;;;;5003363;28;20181;-71
2023/07/29 05:11:07;;;;;;;5.13;3.33;;;;;;;;;;4991987;28;20236;-72
2023/07/29 05:14:13;;;;;;;6.73;3.40;;;;;;;;;;5003404;28;20509;-72
2023/07/29 05:17:17;;;;;;;6.30;3.37;;;;;;;;;;5015648;28;20224;-72
2023/07/29 05:20:21;;;;;;;5.43;3.30;;;;;;;;;;5003528;28;20514;-72
2023/07/29 05:23:25;;;;;;;6.37;3.60;;;;;;;;;;5015422;28;20526;-72
2023/07/29 05:26:29;;;;;;;5.67;3.70;;;;;;;;;;5003235;28;20185;-72
2023/07/29 05:29:33;;;;;;;5.43;3.73;;;;;;;;;;5003116;28;20609;-72
2023/07/29 05:32:37;;;;;;;5.67;3.43;;;;;;;;;;5002933;28;20213;-71
2023/07/29 05:35:44;;;;;;;5.67;3.37;;;;;;;;;;4992035;28;20186;-72
2023/07/29 05:38:49;;;;;;;4.37;3.00;;;;;;;;;;4991827;28;20193;-72
2023/07/29 05:41:53;;;;;;;5.20;2.83;;;;;;;;;;5002350;28;20217;-72
2023/07/29 05:44:57;;;;;;;3.90;3.30;;;;;;;;;;5002673;28;20177;-71
2023/07/29 05:48:01;;;;;;;5.43;3.47;;;;;;;;;;5002857;28;20186;-72
2023/07/29 05:51:06;;;;;;;4.37;3.17;;;;;;;;;;5002599;28;20233;-71
2023/07/29 05:54:10;;;;;;;4.13;2.90;;;;;;;;;;5002742;28;20177;-72
2023/07/29 05:57:14;;;;;;;4.67;2.70;;;;;;;;;;4991351;28;20637;-72
2023/07/29 06:00:18;;;;;;;4.77;2.80;;;;;;;;;;5002512;28;20644;-72
2023/07/29 06:03:23;;;;;;;5.80;2.40;;;;;;;;;;4991416;28;20182;-72
2023/07/29 06:06:29;;;;;;;3.47;2.90;;;;;;;;;;5002260;28;20178;-72
2023/07/29 06:09:33;;;;;;;4.70;2.70;;;;;;;;;;5002262;28;20185;-72
2023/07/29 06:12:38;;;;;;;3.90;2.80;;;;;;;;;;4990975;28;20221;-72
2023/07/29 06:15:42;;;;;;;5.10;2.80;;;;;;;;;;5014532;28;20177;-73
2023/07/29 06:18:47;;;;;;;4.40;2.87;;;;;;;;;;5002379;28;20185;-72
2023/07/29 06:21:52;;;;;;;4.13;2.70;;;;;;;;;;5001901;28;20684;-71
2023/07/29 06:24:56;;;;;;;4.77;2.20;;;;;;;;;;5002426;28;20534;-71
2023/07/29 06:28:00;;;;;;;6.07;2.30;;;;;;;;;;5014343;28;20181;-72
2023/07/29 06:31:04;;;;;;;4.00;2.50;;;;;;;;;;5013930;28;20565;-71
2023/07/29 06:34:09;;;;;;;5.50;2.43;;;;;;;;;;5013974;28;20173;-71
2023/07/29 06:37:13;;;;;;;4.27;2.87;;;;;;;;;;5013932;28;20680;-71
2023/07/29 06:40:17;;;;;;;2.50;2.30;;;;;;;;;;5014465;28;20186;-72
2023/07/29 06:43:21;;;;;;;4.77;2.67;;;;;;;;;;5013762;28;20193;-72
2023/07/29 06:46:26;;;;;;;5.87;2.40;;;;;;;;;;5013687;28;20201;-72
2023/07/29 06:49:30;;;;;;;2.63;2.27;;;;;;;;;;5013783;28;20186;-72
2023/07/29 06:52:34;;;;;;;4.57;2.90;;;;;;;;;;5000634;28;20225;-73
2023/07/29 06:55:39;;;;;;;6.40;2.60;;;;;;;;;;5013765;28;20186;-73
2023/07/29 06:58:43;;;;;;;3.73;2.50;;;;;;;;;;5001416;28;20200;-73
2023/07/29 07:01:48;;;;;;;2.80;2.10;;;;;;;;;;5001294;28;20217;-73
2023/07/29 07:04:52;;;;;;;3.70;3.13;;;;;;;;;;5013989;28;20177;-72
2023/07/29 07:07:56;;;;;;;4.90;2.50;;;;;;;;;;5013783;28;20201;-73
2023/07/29 07:11:00;;;;;;;3.63;3.10;;;;;;;;;;5013533;28;20569;-73
2023/07/29 07:14:04;;;;;;;3.40;3.10;;;;;;;;;;5002063;28;20186;-73
2023/07/29 07:17:08;;;;;;;3.00;2.60;;;;;;;;;;5009468;28;20190;-74
2023/07/29 07:20:12;;;;;;;2.77;2.57;;;;;;;;;;5001749;28;20518;-74
2023/07/29 07:23:17;;;;;;;3.33;2.30;;;;;;;;;;5013784;28;20181;-73
2023/07/29 07:26:21;;;;;;;3.73;2.57;;;;;;;;;;5001651;28;20181;-73
2023/07/29 07:29:25;;;;;;;4.70;2.50;;;;;;;;;;5013731;28;20190;-73
2023/07/29 07:32:29;;;;;;;4.23;2.70;;;;;;;;;;5001259;28;20577;-73
2023/07/29 07:35:33;;;;;;;2.37;2.13;;;;;;;;;;5013669;28;20182;-73
2023/07/29 07:38:37;;;;;;;2.77;2.30;;;;;;;;;;5013443;28;20189;-73
2023/07/29 07:41:41;;;;;;;3.10;2.77;;;;;;;;;;5001136;28;20213;-73
2023/07/29 07:44:46;;;;;;;5.90;2.27;;;;;;;;;;5013196;28;20186;-73
2023/07/29 07:47:53;;;;;;;3.20;2.30;;;;;;;;;;5013445;28;20181;-73
2023/07/29 07:50:57;;;;;;;5.00;2.33;;;;;;;;;;5012858;28;20221;-74
2023/07/29 07:54:01;;;;;;;3.77;2.20;;;;;;;;;;5000914;28;20178;-74
2023/07/29 07:57:05;;;;;;;7.43;3.00;;;;;;;;;;5013007;28;20177;-73
2023/07/29 08:00:10;;;;;;;3.20;2.37;;;;;;;;;;5013455;28;20185;-73
2023/07/29 08:03:17;;;;;;;3.97;2.87;;;;;;;;;;5001141;28;20514;-74
2023/07/29 08:06:22;;;;;;;2.93;2.63;;;;;;;;;;5005165;28;20173;-73
2023/07/29 08:09:26;;;;;;;5.97;2.60;;;;;;;;;;5004542;28;20182;-73
2023/07/29 08:12:30;;;;;;;2.73;2.53;;;;;;;;;;5004337;28;20233;-73
2023/07/29 08:15:34;;;;;;;4.93;2.73;;;;;;;;;;5004334;28;20664;-73
2023/07/29 08:18:38;;;;;;;4.30;2.67;;;;;;;;;;5016666;28;20177;-73
2023/07/29 08:21:42;;;;;;;6.77;3.13;;;;;;;;;;5004447;28;20213;-73
2023/07/29 08:24:47;;;;;;;4.23;2.70;;;;;;;;;;5004824;28;20193;-73
2023/07/29 08:27:51;;;;;;;2.33;2.13;;;;;;;;;;5016709;28;20633;-73
2023/07/29 08:30:55;;;;;;;2.80;2.43;;;;;;;;;;5016495;28;20220;-73
2023/07/29 08:33:59;;;;;;;3.97;2.30;;;;;;;;;;5004325;28;20185;-73
2023/07/29 08:37:04;;;;;;;3.13;2.30;;;;;;;;;;5016102;28;20545;-73
2023/07/29 08:40:08;;;;;;;6.13;2.50;;;;;;;;;;5016001;28;20185;-73
2023/07/29 08:43:15;;;;;;;2.97;2.30;;;;;;;;;;5016049;28;20535;-74
2023/07/29 08:46:20;;;;;;;2.87;2.47;;;;;;;;;;5015946;28;20197;-73
2023/07/29 08:49:25;;;;;;;3.20;2.27;;;;;;;;;;5016445;28;20627;-73
2023/07/29 08:52:32;;;;;;;5.43;2.40;;;;;;;;;;5015769;28;20235;-73
2023/07/29 08:55:36;;;;;;;3.07;2.70;;;;;;;;;;5016092;28;20188;-73
2023/07/29 08:58:41;;;;;;;5.13;2.17;;;;;;;;;;5003854;28;20202;-73
2023/07/29 09:01:46;;;;;;;3.63;2.40;;;;;;;;;;5015713;28;20216;-73
2023/07/29 09:04:50;;;;;;;3.83;2.80;;;;;;;;;;5004390;28;20176;-73
2023/07/29 09:07:55;;;;;;;4.00;3.60;;;;;;;;;;5015573;28;20186;-73
2023/07/29 09:11:00;;;;;;;3.90;2.50;;;;;;;;;;5015644;28;20224;-73
2023/07/29 09:14:04;;;;;;;3.10;2.60;;;;;;;;;;5015710;28;20171;-73
2023/07/29 09:17:09;;;;;;;3.40;2.70;;;;;;;;;;5014559;28;20521;-73
2023/07/29 09:20:14;;;;;;;4.30;2.50;;;;;;;;;;5015536;28;20183;-73
2023/07/29 09:23:18;;;;;;;5.13;2.60;;;;;;;;;;5003268;28;20198;-73
2023/07/29 09:26:26;;;;;;;4.17;2.53;;;;;;;;;;5003435;28;20199;-73
2023/07/29 09:29:31;;;;;;;2.90;2.60;;;;;;;;;;5015676;28;20179;-73
2023/07/29 09:32:39;;;;;;;4.00;2.53;;;;;;;;;;5002824;28;20226;-73
2023/07/29 09:35:44;;;;;;;2.43;2.10;;;;;;;;;;5015083;28;20185;-73
2023/07/29 09:38:52;;;;;;;2.90;2.60;;;;;;;;;;5015027;28;20193;-73
2023/07/29 09:41:56;;;;;;;5.00;4.50;;;;;;;;;;5014947;28;20217;-72
2023/07/29 09:45:01;;;;;;;23.73;17.50;;;;;;;;;;5015050;28;20628;-74
2023/07/29 09:48:09;;;;;;;19.17;14.88;;;;;;;;;;5015328;28;20189;-73
2023/07/29 09:51:14;;;;;;;4.22;3.47;;;;;;;;;;5014635;28;20221;-73
2023/07/29 09:54:20;;;;;;;3.20;2.90;;;;;;;;;;5015178;28;20195;-73
2023/07/29 09:57:24;;;;;;;4.03;2.85;;;;;;;;;;5014919;28;20185;-73
2023/07/29 10:00:29;;;;;;;5.00;2.85;;;;;;;;;;5002756;28;20182;-73
2023/07/29 10:03:35;;;;;;;5.18;2.78;;;;;;;;;;5003039;28;20518;-73
2023/07/29 10:06:41;;;;;;;4.13;2.90;;;;;;;;;;5002691;28;20186;-73
2023/07/29 10:09:46;;;;;;;3.53;2.63;;;;;;;;;;5014803;28;20544;-73
2023/07/29 10:12:50;;;;;;;4.57;2.80;;;;;;;;;;5014684;28;20682;-73
2023/07/29 10:15:55;;;;;;;3.03;2.72;;;;;;;;;;5014752;28;20181;-73
2023/07/29 10:19:00;;;;;;;6.03;3.08;;;;;;;;;;5002498;28;20552;-73
2023/07/29 10:22:06;;;;;;;2.90;2.55;;;;;;;;;;5014591;28;20210;-73
2023/07/29 10:25:18;;;;;;;5.53;3.05;;;;;;;;;;5014716;28;20184;-73
2023/07/29 10:28:26;;;;;;;5.23;2.87;;;;;;;;;;5014323;28;20187;-73
2023/07/29 10:31:31;;;;;;;3.90;2.87;;;;;;;;;;5014094;28;20590;-72
2023/07/29 10:34:36;;;;;;;4.03;2.77;;;;;;;;;;5001814;28;20204;-72
2023/07/29 10:37:41;;;;;;;4.37;3.10;;;;;;;;;;5013902;28;20199;-73
2023/07/29 10:40:56;;;;;;;3.23;2.60;;;;;;;;;;5001665;28;20219;-73
2023/07/29 10:44:00;;;;;;;5.10;4.20;;;;;;;;;;5002282;28;20175;-73
2023/07/29 10:47:17;;;;;;;6.43;4.63;;;;;;;;;;5001742;28;20181;-73
2023/07/29 10:50:22;;;;;;;5.93;3.33;;;;;;;;;;5014206;28;20531;-72
2023/07/29 10:53:30;;;;;;;5.87;3.30;;;;;;;;;;5013582;28;20209;-72
2023/07/29 10:56:36;;;;;;;5.40;3.27;;;;;;;;;;5002072;28;20182;-72
2023/07/29 10:59:40;;;;;;;3.60;2.57;;;;;;;;;;5014394;28;20499;-72
2023/07/29 11:02:58;;;;;;;4.07;2.57;;;;;;;;;;5013469;28;20220;-72
2023/07/29 11:06:04;;;;;;;3.13;2.53;;;;;;;;;;5013810;28;20188;-72
2023/07/29 11:09:39;;;;;;;3.50;2.37;;;;;;;;;;5014150;28;20185;-72
2023/07/29 11:12:47;;;;;;;4.00;2.43;;;;;;;;;;5001256;28;20231;-72
2023/07/29 11:15:53;;;;;;;2.27;2.00;;;;;;;;;;5014027;28;20201;-72
2023/07/29 11:18:59;;;;;;;1.92;1.80;;;;;;;;;;5013684;28;20181;-71
2023/07/29 11:22:04;;;;;;;3.95;2.40;;;;;;;;;;5013345;28;20222;-72
2023/07/29 11:25:10;;;;;;;5.72;2.10;;;;;;;;;;5001721;28;20199;-72
2023/07/29 11:28:14;;;;;;;2.45;2.10;;;;;;;;;;5013720;28;20185;-71
2023/07/29 11:31:20;;;;;;;2.72;2.00;;;;;;;;;;5001391;28;20218;-73
2023/07/29 11:34:33;;;;;;;3.88;2.17;;;;;;;;;;5001206;28;20643;-72
2023/07/29 11:37:38;;;;;;;5.03;3.70;;;;;;;;;;5013354;28;20663;-73
2023/07/29 11:40:42;;;;;;;6.43;4.93;;;;;;;;;;5016880;28;20198;-73
2023/07/29 11:43:47;;;;;;;3.13;2.08;;;;;;;;;;5017915;28;20183;-73
2023/07/29 11:46:51;;;;;;;3.03;2.00;;;;;;;;;;5017507;28;20184;-72
2023/07/29 11:49:59;;;;;;;3.42;2.00;;;;;;;;;;5017301;28;20180;-72
2023/07/29 11:53:03;;;;;;;3.95;2.05;;;;;;;;;;4993835;28;20562;-72
2023/07/29 11:56:07;;;;;;;2.83;2.20;;;;;;;;;;5017059;28;20182;-72
2023/07/29 11:59:12;;;;;;;3.58;1.70;;;;;;;;;;5017163;28;20178;-72
2023/07/29 12:02:19;;;;;;;5.70;1.90;;;;;;;;;;5016735;28;20205;-72
2023/07/29 12:05:25;;;;;;;2.22;1.90;;;;;;;;;;5016906;28;20668;-72
2023/07/29 12:08:29;;;;;;;2.85;1.90;;;;;;;;;;5004639;28;20200;-72
2023/07/29 12:11:33;;;;;;;2.15;1.95;;;;;;;;;;5005112;28;20218;-72
2023/07/29 12:14:37;;;;;;;3.15;1.50;;;;;;;;;;5004418;28;20181;-72
2023/07/29 12:17:41;;;;;;;1.90;1.70;;;;;;;;;;5004470;28;20180;-73
2023/07/29 12:20:45;;;;;;;2.25;1.70;;;;;;;;;;5016239;28;20216;-73
2023/07/29 12:23:51;;;;;;;2.08;1.50;;;;;;;;;;5004567;28;20524;-73
2023/07/29 12:26:55;;;;;;;1.85;1.58;;;;;;;;;;5016340;28;20534;-73
2023/07/29 12:30:03;;;;;;;1.83;1.67;;;;;;;;;;5016436;28;20179;-73
2023/07/29 12:33:08;;;;;;;1.80;1.60;;;;;;;;;;5004101;28;20553;-73
2023/07/29 12:36:12;;;;;;;3.00;1.52;;;;;;;;;;5016103;28;20216;-73
2023/07/29 12:39:27;;;;;;;4.35;1.70;;;;;;;;;;5016297;28;20178;-72
2023/07/29 12:42:31;;;;;;;4.15;1.70;;;;;;;;;;5016108;28;20218;-73
2023/07/29 12:45:39;;;;;;;1.70;1.60;;;;;;;;;;5016048;28;20185;-73
2023/07/29 12:48:43;;;;;;;1.83;1.50;;;;;;;;;;5016299;28;20186;-73
2023/07/29 12:51:48;;;;;;;3.60;1.60;;;;;;;;;;5002527;28;20698;-73
2023/07/29 12:54:51;;;;;;;2.00;1.55;;;;;;;;;;5015973;28;20197;-73
2023/07/29 12:57:58;;;;;;;1.65;1.40;;;;;;;;;;5015627;28;20526;-73
2023/07/29 13:01:02;;;;;;;2.17;1.55;;;;;;;;;;5016106;28;20577;-73
2023/07/29 13:04:06;;;;;;;2.80;1.40;;;;;;;;;;5015784;28;20179;-73
2023/07/29 13:07:10;;;;;;;1.60;1.40;;;;;;;;;;5015578;28;20177;-73
2023/07/29 13:10:14;;;;;;;2.05;1.30;;;;;;;;;;5015967;28;20186;-73
2023/07/29 13:13:18;;;;;;;2.53;1.25;;;;;;;;;;5003219;28;20212;-73
2023/07/29 13:16:23;;;;;;;1.63;1.50;;;;;;;;;;5015281;28;20177;-73
2023/07/29 13:19:27;;;;;;;1.70;1.60;;;;;;;;;;5003694;28;20525;-73
2023/07/29 13:22:31;;;;;;;1.67;1.30;;;;;;;;;;5003172;28;20689;-73
2023/07/29 13:25:35;;;;;;;3.63;1.60;;;;;;;;;;5003341;28;20667;-72
2023/07/29 13:28:39;;;;;;;1.27;1.17;;;;;;;;;;5003443;28;20182;-72
2023/07/29 13:31:43;;;;;;;2.90;1.50;;;;;;;;;;5015394;28;20209;-73
2023/07/29 13:34:47;;;;;;;2.13;1.40;;;;;;;;;;5014831;28;20227;-73
2023/07/29 13:37:51;;;;;;;1.85;1.60;;;;;;;;;;5014695;28;20198;-72
2023/07/29 13:40:56;;;;;;;1.98;1.60;;;;;;;;;;5014694;28;20220;-73
2023/07/29 13:44:00;;;;;;;2.90;1.80;;;;;;;;;;5015056;28;20635;-73
2023/07/29 13:47:05;;;;;;;2.40;1.90;;;;;;;;;;5014687;28;20176;-73
2023/07/29 13:50:10;;;;;;;3.65;1.60;;;;;;;;;;5014935;28;20185;-73
2023/07/29 13:53:14;;;;;;;1.77;1.40;;;;;;;;;;4991460;28;20217;-73
2023/07/29 13:56:18;;;;;;;1.50;1.40;;;;;;;;;;5014826;28;20178;-73
2023/07/29 13:59:22;;;;;;;2.53;1.67;;;;;;;;;;5002728;28;20182;-73
2023/07/29 14:02:26;;;;;;;2.75;1.25;;;;;;;;;;5013998;28;20220;-73
2023/07/29 14:05:30;;;;;;;1.60;1.33;;;;;;;;;;5014397;28;20184;-72
2023/07/29 14:08:35;;;;;;;1.52;1.42;;;;;;;;;;5002174;28;20196;-73
2023/07/29 14:11:39;;;;;;;1.75;1.23;;;;;;;;;;5014381;28;20226;-73
2023/07/29 14:14:43;;;;;;;1.70;1.40;;;;;;;;;;5002028;28;20215;-73
2023/07/29 14:17:47;;;;;;;1.63;1.38;;;;;;;;;;5002404;28;20175;-73
2023/07/29 14:20:51;;;;;;;1.92;1.30;;;;;;;;;;5014040;28;20225;-73
2023/07/29 14:23:55;;;;;;;1.63;1.52;;;;;;;;;;5001966;28;20180;-72
2023/07/29 14:26:59;;;;;;;1.70;1.27;;;;;;;;;;5001939;28;20639;-73
2023/07/29 14:30:05;;;;;;;2.22;1.30;;;;;;;;;;5014346;28;20187;-73
2023/07/29 14:33:09;;;;;;;2.15;1.40;;;;;;;;;;5013797;28;20222;-72
2023/07/29 14:36:13;;;;;;;1.35;1.17;;;;;;;;;;5013720;28;20208;-72
2023/07/29 14:39:17;;;;;;;2.47;1.45;;;;;;;;;;5013863;28;20525;-73
2023/07/29 14:42:22;;;;;;;2.67;1.45;;;;;;;;;;5013692;28;20221;-72
2023/07/29 14:45:26;;;;;;;1.58;1.25;;;;;;;;;;5013749;28;20530;-72
2023/07/29 14:48:30;;;;;;;1.48;1.27;;;;;;;;;;5013683;28;20182;-72
2023/07/29 14:51:34;;;;;;;2.22;1.50;;;;;;;;;;5001697;28;20217;-73
2023/07/29 14:54:39;;;;;;;1.90;1.45;;;;;;;;;;5014242;28;20209;-72
2023/07/29 14:57:43;;;;;;;2.08;1.30;;;;;;;;;;5001462;28;20188;-72
2023/07/29 15:00:47;;;;;;;2.72;1.40;;;;;;;;;;5013835;28;20560;-71
2023/07/29 15:03:51;;;;;;;1.50;1.13;;;;;;;;;;5013831;28;20188;-71
2023/07/29 15:06:55;;;;;;;1.83;1.23;;;;;;;;;;5013710;28;20516;-72
2023/07/29 15:09:59;;;;;;;5.97;1.30;;;;;;;;;;5013608;28;20199;-71
2023/07/29 15:13:03;;;;;;;1.90;1.30;;;;;;;;;;5001033;28;20193;-72
2023/07/29 15:16:07;;;;;;;1.40;1.27;;;;;;;;;;5001526;28;20204;-72
2023/07/29 15:19:12;;;;;;;1.48;1.25;;;;;;;;;;4990677;28;20186;-72
2023/07/29 15:22:16;;;;;;;1.50;1.10;;;;;;;;;;5013313;28;20218;-71
2023/07/29 15:25:21;;;;;;;1.30;1.08;;;;;;;;;;5013432;28;20240;-71
2023/07/29 15:28:25;;;;;;;1.52;1.42;;;;;;;;;;5013239;28;20182;-72
2023/07/29 15:31:29;;;;;;;1.30;1.20;;;;;;;;;;5001381;28;20219;-71
2023/07/29 15:34:34;;;;;;;3.95;1.48;;;;;;;;;;5013583;28;20684;-72
2023/07/29 15:37:38;;;;;;;2.40;1.40;;;;;;;;;;5013210;28;20200;-71
2023/07/29 15:40:42;;;;;;;2.08;1.52;;;;;;;;;;5013404;28;20182;-71
2023/07/29 15:43:47;;;;;;;1.70;1.60;;;;;;;;;;5013194;28;20531;-71
2023/07/29 15:46:55;;;;;;;2.97;1.15;;;;;;;;;;5000967;28;20183;-72
2023/07/29 15:49:59;;;;;;;1.77;1.50;;;;;;;;;;5013266;28;20553;-72
2023/07/29 15:53:03;;;;;;;1.48;1.20;;;;;;;;;;5013406;28;20198;-72
2023/07/29 15:56:08;;;;;;;2.15;1.40;;;;;;;;;;5013109;28;20193;-72
2023/07/29 15:59:12;;;;;;;5.10;1.30;;;;;;;;;;5013152;28;20188;-72
2023/07/29 16:02:16;;;;;;;1.58;1.20;;;;;;;;;;5000815;28;20220;-72
2023/07/29 16:05:20;;;;;;;2.10;1.25;;;;;;;;;;5013166;28;20181;-71
2023/07/29 16:08:24;;;;;;;1.30;1.20;;;;;;;;;;5012888;28;20180;-71
2023/07/29 16:11:28;;;;;;;2.15;1.45;;;;;;;;;;5001003;28;20213;-71
2023/07/29 16:14:33;;;;;;;1.63;1.20;;;;;;;;;;5001356;28;20201;-72
2023/07/29 16:17:37;;;;;;;2.28;1.42;;;;;;;;;;5013258;28;20179;-71
2023/07/29 16:20:41;;;;;;;1.88;1.50;;;;;;;;;;4989560;28;20189;-72
2023/07/29 16:23:45;;;;;;;1.30;1.20;;;;;;;;;;5000847;28;20519;-72
2023/07/29 16:26:49;;;;;;;3.67;1.43;;;;;;;;;;5016527;28;20631;-71
2023/07/29 16:29:53;;;;;;;2.30;1.10;;;;;;;;;;5004396;28;20184;-71
2023/07/29 16:32:57;;;;;;;1.53;1.20;;;;;;;;;;5016408;28;20184;-72
2023/07/29 16:36:01;;;;;;;1.63;1.20;;;;;;;;;;5004294;28;20201;-72
2023/07/29 16:39:05;;;;;;;1.40;1.10;;;;;;;;;;5016031;28;20181;-72
2023/07/29 16:42:10;;;;;;;1.40;1.00;;;;;;;;;;5015850;28;20217;-72
2023/07/29 16:45:15;;;;;;;2.00;1.17;;;;;;;;;;5016170;28;20181;-72
2023/07/29 16:48:18;;;;;;;2.50;1.30;;;;;;;;;;5015886;28;20183;-71
2023/07/29 16:51:22;;;;;;;1.53;1.10;;;;;;;;;;5016103;28;20223;-72
2023/07/29 16:54:27;;;;;;;2.23;1.53;;;;;;;;;;5003814;28;20226;-72
2023/07/29 16:57:31;;;;;;;2.83;1.60;;;;;;;;;;5003692;28;20203;-72
2023/07/29 17:00:35;;;;;;;3.23;1.53;;;;;;;;;;5015862;28;20179;-71
2023/07/29 17:03:39;;;;;;;3.70;1.70;;;;;;;;;;5003793;28;20179;-71
2023/07/29 17:06:43;;;;;;;1.70;1.40;;;;;;;;;;5015869;28;20183;-71
2023/07/29 17:09:47;;;;;;;2.00;1.50;;;;;;;;;;5015459;28;20178;-71
2023/07/29 17:12:52;;;;;;;2.50;1.60;;;;;;;;;;5003312;28;20186;-71
2023/07/29 17:15:56;;;;;;;2.40;1.80;;;;;;;;;;5015288;28;20221;-71
2023/07/29 17:19:02;;;;;;;3.70;2.20;;;;;;;;;;5015530;28;20182;-71
2023/07/29 17:22:06;;;;;;;2.43;2.23;;;;;;;;;;5003569;28;20217;-71
2023/07/29 17:25:11;;;;;;;3.50;2.30;;;;;;;;;;5015665;28;20178;-71
2023/07/29 17:28:16;;;;;;;5.67;2.63;;;;;;;;;;5015731;28;20629;-72
2023/07/29 17:31:20;;;;;;;2.87;2.23;;;;;;;;;;5015103;28;20217;-71
2023/07/29 17:34:24;;;;;;;2.83;2.03;;;;;;;;;;5003445;28;20213;-72
2023/07/29 17:37:29;;;;;;;4.47;2.67;;;;;;;;;;5014164;28;20209;-72
2023/07/29 17:40:32;;;;;;;4.80;2.40;;;;;;;;;;5003046;28;20182;-72
2023/07/29 17:43:43;;;;;;;3.93;2.80;;;;;;;;;;5015347;28;20182;-71
2023/07/29 17:46:48;;;;;;;2.63;2.43;;;;;;;;;;5014819;28;20201;-71
2023/07/29 17:49:52;;;;;;;3.20;2.40;;;;;;;;;;5014726;28;20308;-71
2023/07/29 17:52:57;;;;;;;3.00;2.23;;;;;;;;;;4980459;28;20189;-71
2023/07/29 17:56:01;;;;;;;3.37;2.43;;;;;;;;;;5014887;28;20546;-71
2023/07/29 17:59:05;;;;;;;5.70;2.40;;;;;;;;;;4991598;28;20178;-71
2023/07/29 18:02:09;;;;;;;4.63;2.80;;;;;;;;;;5014374;28;20209;-71
2023/07/29 18:05:14;;;;;;;3.40;2.70;;;;;;;;;;5015288;28;20173;-72
2023/07/29 18:08:18;;;;;;;5.83;2.87;;;;;;;;;;5014734;28;20177;-72
2023/07/29 18:11:22;;;;;;;3.83;2.50;;;;;;;;;;5014450;28;20569;-72
2023/07/29 18:14:27;;;;;;;3.10;2.63;;;;;;;;;;5014685;28;20229;-71
2023/07/29 18:17:32;;;;;;;4.67;2.40;;;;;;;;;;5014297;28;20197;-72
2023/07/29 18:20:36;;;;;;;5.40;2.30;;;;;;;;;;5014570;28;20173;-72
2023/07/29 18:23:40;;;;;;;3.03;2.30;;;;;;;;;;5002082;28;20185;-72
2023/07/29 18:26:44;;;;;;;2.30;2.10;;;;;;;;;;5014234;28;20185;-71
2023/07/29 18:29:48;;;;;;;4.17;2.37;;;;;;;;;;5014335;28;20173;-71